sensor_id;sensor_type;location;lat;lon;timestamp;pressure;altitude;pressure_sealevel;temperature;humidity
64025;BME280;50266;57.446;26.936;2022-11-20T00:00:21;99387.96;;;-5.95;100.0
64025;BME280;50266;57.446;26.936;2022-11-20T00:01:22;99387.2;;;-5.95;100.0
64025;BME280;50266;57.446;26.936;2022-11-20T00:02:21;99381.28;;;-5.97;100.0
64025;BME280;50266;57.446;26.936;2022-11-20T00:03:21;99386.62;;;-5.99;100.0
64025;BME280;50266;57.446;26.936;2022-11-20T00:04:21;99387.7;;;-5.99;100.0
64025;BME280;50266;57.446;26.936;2022-11-20T00:05:21;99383.76;;;-5.97;100.0
64025;BME280;50266;57.446;26.936;2022-11-20T00:06:21;99382.25;;;-5.97;100.0
64025;BME280;50266;57.446;26.936;2022-11-20T00:07:21;99379.61;;;-5.98;100.0
64025;BME280;50266;57.446;26.936;2022-11-20T00:08:21;99382.52;;;-5.98;100.0
64025;BME280;50266;57.446;26.936;2022-11-20T00:09:21;99380.09;;;-5.99;100.0
64025;BME280;50266;57.446;26.936;2022-11-20T00:10:21;99377.83;;;-5.99;100.0
64025;BME280;50266;57.446;26.936;2022-11-20T00:11:22;99380.09;;;-6.01;100.0
64025;BME280;50266;57.446;26.936;2022-11-20T00:12:21;99380.14;;;-5.99;100.0
64025;BME280;50266;57.446;26.936;2022-11-20T00:13:21;99373.79;;;-6.01;100.0
64025;BME280;50266;57.446;26.936;2022-11-20T00:14:21;99380.47;;;-5.98;100.0
64025;BME280;50266;57.446;26.936;2022-11-20T00:15:21;99382.52;;;-5.96;100.0
64025;BME280;50266;57.446;26.936;2022-11-20T00:16:22;99380.95;;;-5.98;100.0
64025;BME280;50266;57.446;26.936;2022-11-20T00:17:21;99388.72;;;-5.99;100.0
64025;BME280;50266;57.446;26.936;2022-11-20T00:18:22;99381.69;;;-6.02;100.0
64025;BME280;50266;57.446;26.936;2022-11-20T00:19:21;99379.07;;;-6.01;100.0
64025;BME280;50266;57.446;26.936;2022-11-20T00:20:21;99374.0;;;-5.98;100.0
64025;BME280;50266;57.446;26.936;2022-11-20T00:21:22;99377.5;;;-5.96;100.0
64025;BME280;50266;57.446;26.936;2022-11-20T00:22:21;99370.64;;;-6.02;100.0
64025;BME280;50266;57.446;26.936;2022-11-20T00:23:21;99368.77;;;-5.98;100.0
64025;BME280;50266;57.446;26.936;2022-11-20T00:24:21;99370.5;;;-6.0;100.0
64025;BME280;50266;57.446;26.936;2022-11-20T00:25:21;99370.07;;;-6.01;100.0
64025;BME280;50266;57.446;26.936;2022-11-20T00:26:22;99373.19;;;-5.96;100.0
64025;BME280;50266;57.446;26.936;2022-11-20T00:27:21;99374.7;;;-5.97;100.0
64025;BME280;50266;57.446;26.936;2022-11-20T00:28:21;99372.55;;;-5.97;100.0
64025;BME280;50266;57.446;26.936;2022-11-20T00:29:21;99375.03;;;-5.98;100.0
64025;BME280;50266;57.446;26.936;2022-11-20T00:30:21;99370.12;;;-5.98;100.0
64025;BME280;50266;57.446;26.936;2022-11-20T00:31:21;99368.88;;;-6.0;100.0
64025;BME280;50266;57.446;26.936;2022-11-20T00:32:21;99375.78;;;-5.96;100.0
64025;BME280;50266;57.446;26.936;2022-11-20T00:33:21;99372.02;;;-6.01;100.0
64025;BME280;50266;57.446;26.936;2022-11-20T00:34:21;99367.36;;;-6.04;100.0
64025;BME280;50266;57.446;26.936;2022-11-20T00:35:21;99371.78;;;-6.03;100.0
64025;BME280;50266;57.446;26.936;2022-11-20T00:36:22;99367.79;;;-6.03;100.0
64025;BME280;50266;57.446;26.936;2022-11-20T00:37:21;99367.09;;;-6.02;100.0
64025;BME280;50266;57.446;26.936;2022-11-20T00:38:21;99361.88;;;-6.01;100.0
64025;BME280;50266;57.446;26.936;2022-11-20T00:39:21;99361.77;;;-6.01;100.0
64025;BME280;50266;57.446;26.936;2022-11-20T00:40:21;99364.58;;;-6.01;100.0
64025;BME280;50266;57.446;26.936;2022-11-20T00:41:22;99358.57;;;-6.02;100.0
64025;BME280;50266;57.446;26.936;2022-11-20T00:42:21;99362.63;;;-6.0;100.0
64025;BME280;50266;57.446;26.936;2022-11-20T00:43:21;99360.3;;;-6.05;100.0
64025;BME280;50266;57.446;26.936;2022-11-20T00:44:22;99355.39;;;-6.04;100.0
64025;BME280;50266;57.446;26.936;2022-11-20T00:45:22;99356.17;;;-6.01;100.0
64025;BME280;50266;57.446;26.936;2022-11-20T00:46:23;99355.5;;;-6.03;100.0
64025;BME280;50266;57.446;26.936;2022-11-20T00:47:22;99355.18;;;-6.03;100.0
64025;BME280;50266;57.446;26.936;2022-11-20T00:48:22;99355.28;;;-6.03;100.0
64025;BME280;50266;57.446;26.936;2022-11-20T00:49:22;99357.55;;;-6.05;100.0
64025;BME280;50266;57.446;26.936;2022-11-20T00:50:22;99359.87;;;-6.04;100.0
64025;BME280;50266;57.446;26.936;2022-11-20T00:51:23;99360.57;;;-6.05;100.0
64025;BME280;50266;57.446;26.936;2022-11-20T00:52:22;99352.65;;;-6.04;100.0
64025;BME280;50266;57.446;26.936;2022-11-20T00:53:22;99357.23;;;-6.06;100.0
64025;BME280;50266;57.446;26.936;2022-11-20T00:54:22;99356.91;;;-6.06;100.0
64025;BME280;50266;57.446;26.936;2022-11-20T00:55:22;99354.75;;;-6.07;100.0
64025;BME280;50266;57.446;26.936;2022-11-20T00:56:22;99354.91;;;-6.05;100.0
64025;BME280;50266;57.446;26.936;2022-11-20T00:57:22;99353.23;;;-6.06;100.0
64025;BME280;50266;57.446;26.936;2022-11-20T00:58:22;99353.5;;;-6.03;100.0
64025;BME280;50266;57.446;26.936;2022-11-20T00:59:22;99349.58;;;-6.04;100.0
64025;BME280;50266;57.446;26.936;2022-11-20T01:00:22;99348.98;;;-6.02;100.0
64025;BME280;50266;57.446;26.936;2022-11-20T01:01:23;99349.8;;;-6.06;100.0
64025;BME280;50266;57.446;26.936;2022-11-20T01:02:22;99352.05;;;-6.05;100.0
64025;BME280;50266;57.446;26.936;2022-11-20T01:03:22;99352.54;;;-6.05;100.0
64025;BME280;50266;57.446;26.936;2022-11-20T01:04:23;99351.67;;;-6.06;100.0
64025;BME280;50266;57.446;26.936;2022-11-20T01:05:23;99353.19;;;-6.04;100.0
64025;BME280;50266;57.446;26.936;2022-11-20T01:06:24;99348.66;;;-6.06;100.0
64025;BME280;50266;57.446;26.936;2022-11-20T01:07:23;99353.24;;;-6.08;100.0
64025;BME280;50266;57.446;26.936;2022-11-20T01:08:23;99351.3;;;-6.05;100.0
64025;BME280;50266;57.446;26.936;2022-11-20T01:09:23;99352.34;;;-6.0;100.0
64025;BME280;50266;57.446;26.936;2022-11-20T01:10:23;99358.47;;;-6.04;100.0
64025;BME280;50266;57.446;26.936;2022-11-20T01:11:24;99355.88;;;-6.08;100.0
64025;BME280;50266;57.446;26.936;2022-11-20T01:12:23;99350.49;;;-6.08;100.0
64025;BME280;50266;57.446;26.936;2022-11-20T01:13:23;99350.66;;;-6.05;100.0
64025;BME280;50266;57.446;26.936;2022-11-20T01:14:23;99347.75;;;-6.07;100.0
64025;BME280;50266;57.446;26.936;2022-11-20T01:15:23;99346.18;;;-6.07;100.0
64025;BME280;50266;57.446;26.936;2022-11-20T01:16:24;99338.86;;;-6.09;100.0
64025;BME280;50266;57.446;26.936;2022-11-20T01:17:23;99339.66;;;-6.1;100.0
64025;BME280;50266;57.446;26.936;2022-11-20T01:18:23;99339.5;;;-6.07;100.0
64025;BME280;50266;57.446;26.936;2022-11-20T01:19:23;99341.06;;;-6.05;100.0
64025;BME280;50266;57.446;26.936;2022-11-20T01:20:23;99338.91;;;-6.07;100.0
64025;BME280;50266;57.446;26.936;2022-11-20T01:21:32;99341.49;;;-6.05;100.0
64025;BME280;50266;57.446;26.936;2022-11-20T01:22:25;99341.59;;;-6.05;100.0
64025;BME280;50266;57.446;26.936;2022-11-20T01:23:25;99339.88;;;-6.08;100.0
64025;BME280;50266;57.446;26.936;2022-11-20T01:24:25;99344.03;;;-6.07;100.0
64025;BME280;50266;57.446;26.936;2022-11-20T01:25:25;99343.22;;;-6.07;100.0
64025;BME280;50266;57.446;26.936;2022-11-20T01:26:28;99342.25;;;-6.09;100.0
64025;BME280;50266;57.446;26.936;2022-11-20T01:27:25;99340.04;;;-6.08;100.0
64025;BME280;50266;57.446;26.936;2022-11-20T01:28:25;99339.83;;;-6.07;100.0
64025;BME280;50266;57.446;26.936;2022-11-20T01:29:25;99342.14;;;-6.07;100.0
64025;BME280;50266;57.446;26.936;2022-11-20T01:30:26;99340.9;;;-6.05;100.0
64025;BME280;50266;57.446;26.936;2022-11-20T01:31:27;99335.94;;;-6.07;100.0
64025;BME280;50266;57.446;26.936;2022-11-20T01:32:26;99338.36;;;-6.06;100.0
64025;BME280;50266;57.446;26.936;2022-11-20T01:33:26;99340.15;;;-6.09;100.0
64025;BME280;50266;57.446;26.936;2022-11-20T01:34:26;99343.16;;;-6.06;100.0
64025;BME280;50266;57.446;26.936;2022-11-20T01:35:26;99340.2;;;-6.07;100.0
64025;BME280;50266;57.446;26.936;2022-11-20T01:36:27;99339.72;;;-6.08;100.0
64025;BME280;50266;57.446;26.936;2022-11-20T01:37:26;99335.62;;;-6.1;100.0
64025;BME280;50266;57.446;26.936;2022-11-20T01:38:26;99333.09;;;-6.11;100.0
64025;BME280;50266;57.446;26.936;2022-11-20T01:39:26;99332.17;;;-6.08;100.0
64025;BME280;50266;57.446;26.936;2022-11-20T01:40:26;99335.89;;;-6.1;100.0
64025;BME280;50266;57.446;26.936;2022-11-20T01:41:26;99333.3;;;-6.09;100.0
64025;BME280;50266;57.446;26.936;2022-11-20T01:42:26;99331.31;;;-6.08;100.0
64025;BME280;50266;57.446;26.936;2022-11-20T01:43:26;99334.44;;;-6.09;100.0
64025;BME280;50266;57.446;26.936;2022-11-20T01:46:35;99331.36;;;-6.1;100.0
64025;BME280;50266;57.446;26.936;2022-11-20T01:47:37;99335.14;;;-6.09;100.0
64025;BME280;50266;57.446;26.936;2022-11-20T01:48:37;99334.55;;;-6.09;100.0
64025;BME280;50266;57.446;26.936;2022-11-20T01:49:39;99330.83;;;-6.09;100.0
64025;BME280;50266;57.446;26.936;2022-11-20T01:50:37;99335.57;;;-6.09;100.0
64025;BME280;50266;57.446;26.936;2022-11-20T01:51:53;99334.97;;;-6.08;100.0
64025;BME280;50266;57.446;26.936;2022-11-20T01:52:43;99335.19;;;-6.1;100.0
64025;BME280;50266;57.446;26.936;2022-11-20T01:53:42;99330.72;;;-6.11;100.0
64025;BME280;50266;57.446;26.936;2022-11-20T01:54:44;99330.98;;;-6.12;100.0
64025;BME280;50266;57.446;26.936;2022-11-20T01:55:53;99327.97;;;-6.12;100.0
64025;BME280;50266;57.446;26.936;2022-11-20T01:56:46;99327.76;;;-6.11;100.0
64025;BME280;50266;57.446;26.936;2022-11-20T01:57:46;99328.78;;;-6.11;100.0
64025;BME280;50266;57.446;26.936;2022-11-20T01:58:48;99329.8;;;-6.11;100.0
64025;BME280;50266;57.446;26.936;2022-11-20T01:59:49;99328.61;;;-6.09;100.0
64025;BME280;50266;57.446;26.936;2022-11-20T02:00:47;99329.21;;;-6.12;100.0
64025;BME280;50266;57.446;26.936;2022-11-20T02:01:47;99327.65;;;-6.12;100.0
64025;BME280;50266;57.446;26.936;2022-11-20T02:02:48;99326.95;;;-6.11;100.0
64025;BME280;50266;57.446;26.936;2022-11-20T02:03:48;99326.2;;;-6.13;100.0
64025;BME280;50266;57.446;26.936;2022-11-20T02:04:48;99324.14;;;-6.11;100.0
64025;BME280;50266;57.446;26.936;2022-11-20T02:05:51;99323.12;;;-6.11;100.0
64025;BME280;50266;57.446;26.936;2022-11-20T02:06:53;99322.75;;;-6.11;100.0
64025;BME280;50266;57.446;26.936;2022-11-20T02:07:54;99320.59;;;-6.11;100.0
64025;BME280;50266;57.446;26.936;2022-11-20T02:08:53;99320.64;;;-6.12;100.0
64025;BME280;50266;57.446;26.936;2022-11-20T02:09:53;99316.55;;;-6.1;100.0
64025;BME280;50266;57.446;26.936;2022-11-20T02:10:54;99318.0;;;-6.08;100.0
64025;BME280;50266;57.446;26.936;2022-11-20T02:11:54;99319.84;;;-6.11;100.0
64025;BME280;50266;57.446;26.936;2022-11-20T02:12:54;99318.59;;;-6.11;100.0
64025;BME280;50266;57.446;26.936;2022-11-20T02:13:54;99316.38;;;-6.09;100.0
64025;BME280;50266;57.446;26.936;2022-11-20T02:14:54;99314.12;;;-6.11;100.0
64025;BME280;50266;57.446;26.936;2022-11-20T02:15:54;99321.39;;;-6.1;100.0
64025;BME280;50266;57.446;26.936;2022-11-20T02:16:54;99314.88;;;-6.12;100.0
64025;BME280;50266;57.446;26.936;2022-11-20T02:17:54;99316.72;;;-6.13;100.0
64025;BME280;50266;57.446;26.936;2022-11-20T02:18:55;99318.75;;;-6.1;100.0
64025;BME280;50266;57.446;26.936;2022-11-20T02:19:54;99320.11;;;-6.1;100.0
64025;BME280;50266;57.446;26.936;2022-11-20T02:21:06;99318.76;;;-6.12;100.0
64025;BME280;50266;57.446;26.936;2022-11-20T02:22:14;99321.3;;;-6.13;100.0
64025;BME280;50266;57.446;26.936;2022-11-20T02:23:05;99322.16;;;-6.12;100.0
64025;BME280;50266;57.446;26.936;2022-11-20T02:24:09;99321.83;;;-6.11;100.0
64025;BME280;50266;57.446;26.936;2022-11-20T02:25:07;99321.02;;;-6.09;100.0
64025;BME280;50266;57.446;26.936;2022-11-20T02:26:08;99320.86;;;-6.11;100.0
64025;BME280;50266;57.446;26.936;2022-11-20T02:27:10;99322.53;;;-6.13;100.0
64025;BME280;50266;57.446;26.936;2022-11-20T02:28:08;99324.8;;;-6.1;100.0
64025;BME280;50266;57.446;26.936;2022-11-20T02:29:08;99322.05;;;-6.11;100.0
64025;BME280;50266;57.446;26.936;2022-11-20T02:30:08;99321.83;;;-6.14;100.0
64025;BME280;50266;57.446;26.936;2022-11-20T02:31:08;99318.28;;;-6.15;100.0
64025;BME280;50266;57.446;26.936;2022-11-20T02:32:30;99318.71;;;-6.16;100.0
64025;BME280;50266;57.446;26.936;2022-11-20T02:33:12;99318.0;;;-6.13;100.0
64025;BME280;50266;57.446;26.936;2022-11-20T02:34:11;99316.02;;;-6.12;100.0
64025;BME280;50266;57.446;26.936;2022-11-20T02:36:14;99314.39;;;-6.12;100.0
64025;BME280;50266;57.446;26.936;2022-11-20T02:37:13;99310.89;;;-6.15;100.0
64025;BME280;50266;57.446;26.936;2022-11-20T02:38:14;99313.91;;;-6.15;100.0
64025;BME280;50266;57.446;26.936;2022-11-20T02:39:13;99310.04;;;-6.17;100.0
64025;BME280;50266;57.446;26.936;2022-11-20T02:40:14;99306.86;;;-6.17;100.0
64025;BME280;50266;57.446;26.936;2022-11-20T02:41:13;99308.31;;;-6.19;100.0
64025;BME280;50266;57.446;26.936;2022-11-20T02:42:13;99311.87;;;-6.17;100.0
64025;BME280;50266;57.446;26.936;2022-11-20T02:43:15;99309.93;;;-6.19;100.0
64025;BME280;50266;57.446;26.936;2022-11-20T02:44:14;99308.8;;;-6.17;100.0
64025;BME280;50266;57.446;26.936;2022-11-20T02:45:14;99308.31;;;-6.19;100.0
64025;BME280;50266;57.446;26.936;2022-11-20T02:46:14;99310.14;;;-6.2;100.0
64025;BME280;50266;57.446;26.936;2022-11-20T02:47:14;99308.37;;;-6.18;100.0
64025;BME280;50266;57.446;26.936;2022-11-20T02:48:14;99309.39;;;-6.2;100.0
64025;BME280;50266;57.446;26.936;2022-11-20T02:49:14;99309.61;;;-6.19;100.0
64025;BME280;50266;57.446;26.936;2022-11-20T02:50:14;99310.95;;;-6.17;100.0
64025;BME280;50266;57.446;26.936;2022-11-20T02:51:14;99311.06;;;-6.18;100.0
64025;BME280;50266;57.446;26.936;2022-11-20T02:52:14;99308.85;;;-6.18;100.0
64025;BME280;50266;57.446;26.936;2022-11-20T02:53:14;99307.3;;;-6.19;100.0
64025;BME280;50266;57.446;26.936;2022-11-20T02:54:14;99306.91;;;-6.15;100.0
64025;BME280;50266;57.446;26.936;2022-11-20T02:55:14;99304.33;;;-6.17;100.0
64025;BME280;50266;57.446;26.936;2022-11-20T02:56:14;99303.8;;;-6.21;100.0
64025;BME280;50266;57.446;26.936;2022-11-20T02:57:14;99308.31;;;-6.19;100.0
64025;BME280;50266;57.446;26.936;2022-11-20T02:58:14;99308.91;;;-6.18;100.0
64025;BME280;50266;57.446;26.936;2022-11-20T02:59:14;99306.0;;;-6.18;100.0
64025;BME280;50266;57.446;26.936;2022-11-20T03:00:14;99310.25;;;-6.15;100.0
64025;BME280;50266;57.446;26.936;2022-11-20T03:01:14;99304.66;;;-6.19;100.0
64025;BME280;50266;57.446;26.936;2022-11-20T03:02:14;99308.09;;;-6.19;100.0
64025;BME280;50266;57.446;26.936;2022-11-20T03:03:14;99306.97;;;-6.21;100.0
64025;BME280;50266;57.446;26.936;2022-11-20T03:04:14;99307.72;;;-6.17;100.0
64025;BME280;50266;57.446;26.936;2022-11-20T03:05:14;99305.62;;;-6.19;100.0
64025;BME280;50266;57.446;26.936;2022-11-20T03:06:15;99306.59;;;-6.2;100.0
64025;BME280;50266;57.446;26.936;2022-11-20T03:07:14;99307.67;;;-6.2;100.0
64025;BME280;50266;57.446;26.936;2022-11-20T03:08:14;99309.93;;;-6.19;100.0
64025;BME280;50266;57.446;26.936;2022-11-20T03:09:14;99309.72;;;-6.21;100.0
64025;BME280;50266;57.446;26.936;2022-11-20T03:10:14;99304.59;;;-6.18;100.0
64025;BME280;50266;57.446;26.936;2022-11-20T03:11:14;99307.61;;;-6.18;100.0
64025;BME280;50266;57.446;26.936;2022-11-20T03:12:14;99307.83;;;-6.18;100.0
64025;BME280;50266;57.446;26.936;2022-11-20T03:13:14;99307.34;;;-6.18;100.0
64025;BME280;50266;57.446;26.936;2022-11-20T03:14:14;99310.36;;;-6.18;100.0
64025;BME280;50266;57.446;26.936;2022-11-20T03:15:14;99307.12;;;-6.18;100.0
64025;BME280;50266;57.446;26.936;2022-11-20T03:16:15;99311.55;;;-6.16;100.0
64025;BME280;50266;57.446;26.936;2022-11-20T03:17:15;99308.84;;;-6.16;100.0
64025;BME280;50266;57.446;26.936;2022-11-20T03:18:14;99312.14;;;-6.16;100.0
64025;BME280;50266;57.446;26.936;2022-11-20T03:19:14;99310.73;;;-6.16;100.0
64025;BME280;50266;57.446;26.936;2022-11-20T03:20:14;99307.88;;;-6.17;100.0
64025;BME280;50266;57.446;26.936;2022-11-20T03:21:14;99311.55;;;-6.19;100.0
64025;BME280;50266;57.446;26.936;2022-11-20T03:22:14;99314.34;;;-6.17;100.0
64025;BME280;50266;57.446;26.936;2022-11-20T03:23:14;99307.67;;;-6.19;100.0
64025;BME280;50266;57.446;26.936;2022-11-20T03:24:14;99306.0;;;-6.2;100.0
64025;BME280;50266;57.446;26.936;2022-11-20T03:25:14;99306.7;;;-6.19;100.0
64025;BME280;50266;57.446;26.936;2022-11-20T03:26:15;99308.26;;;-6.18;100.0
64025;BME280;50266;57.446;26.936;2022-11-20T03:27:14;99303.41;;;-6.18;100.0
64025;BME280;50266;57.446;26.936;2022-11-20T03:28:14;99302.7;;;-6.18;100.0
64025;BME280;50266;57.446;26.936;2022-11-20T03:29:14;99302.39;;;-6.19;100.0
64025;BME280;50266;57.446;26.936;2022-11-20T03:30:14;99301.8;;;-6.18;100.0
64025;BME280;50266;57.446;26.936;2022-11-20T03:31:14;99306.69;;;-6.15;100.0
64025;BME280;50266;57.446;26.936;2022-11-20T03:32:14;99307.76;;;-6.09;100.0
64025;BME280;50266;57.446;26.936;2022-11-20T03:33:14;99306.09;;;-6.12;100.0
64025;BME280;50266;57.446;26.936;2022-11-20T03:34:14;99303.41;;;-6.13;100.0
64025;BME280;50266;57.446;26.936;2022-11-20T03:35:14;99305.02;;;-6.11;100.0
64025;BME280;50266;57.446;26.936;2022-11-20T03:36:15;99304.8;;;-6.08;100.0
64025;BME280;50266;57.446;26.936;2022-11-20T03:37:14;99304.27;;;-6.12;100.0
64025;BME280;50266;57.446;26.936;2022-11-20T03:38:14;99299.3;;;-6.11;100.0
64025;BME280;50266;57.446;26.936;2022-11-20T03:39:14;99302.97;;;-6.12;100.0
64025;BME280;50266;57.446;26.936;2022-11-20T03:40:14;99302.95;;;-6.06;100.0
64025;BME280;50266;57.446;26.936;2022-11-20T03:41:18;99299.98;;;-6.02;100.0
64025;BME280;50266;57.446;26.936;2022-11-20T03:42:15;99296.28;;;-5.99;100.0
64025;BME280;50266;57.446;26.936;2022-11-20T03:43:15;99299.02;;;-5.97;100.0
64025;BME280;50266;57.446;26.936;2022-11-20T03:44:15;99300.16;;;-5.96;100.0
64025;BME280;50266;57.446;26.936;2022-11-20T03:45:16;99302.31;;;-5.95;100.0
64025;BME280;50266;57.446;26.936;2022-11-20T03:46:15;99304.84;;;-5.96;100.0
64025;BME280;50266;57.446;26.936;2022-11-20T03:47:15;99303.12;;;-5.97;100.0
64025;BME280;50266;57.446;26.936;2022-11-20T03:48:15;99302.58;;;-5.94;100.0
64025;BME280;50266;57.446;26.936;2022-11-20T03:49:15;99303.28;;;-5.95;100.0
64025;BME280;50266;57.446;26.936;2022-11-20T03:50:15;99303.22;;;-5.93;100.0
64025;BME280;50266;57.446;26.936;2022-11-20T03:51:22;99302.52;;;-5.95;100.0
64025;BME280;50266;57.446;26.936;2022-11-20T03:52:19;99304.3;;;-5.94;100.0
64025;BME280;50266;57.446;26.936;2022-11-20T03:53:19;99301.93;;;-5.94;100.0
64025;BME280;50266;57.446;26.936;2022-11-20T03:54:19;99304.57;;;-5.86;100.0
64025;BME280;50266;57.446;26.936;2022-11-20T03:55:19;99305.38;;;-5.92;100.0
64025;BME280;50266;57.446;26.936;2022-11-20T03:56:20;99306.61;;;-5.91;100.0
64025;BME280;50266;57.446;26.936;2022-11-20T03:57:19;99307.36;;;-5.88;100.0
64025;BME280;50266;57.446;26.936;2022-11-20T03:58:19;99304.5;;;-5.87;100.0
64025;BME280;50266;57.446;26.936;2022-11-20T03:59:19;99301.97;;;-5.83;100.0
64025;BME280;50266;57.446;26.936;2022-11-20T04:00:19;99297.89;;;-5.86;100.0
64025;BME280;50266;57.446;26.936;2022-11-20T04:01:20;99302.95;;;-5.86;100.0
64025;BME280;50266;57.446;26.936;2022-11-20T04:02:19;99301.53;;;-5.87;100.0
64025;BME280;50266;57.446;26.936;2022-11-20T04:03:19;99303.37;;;-5.81;100.0
64025;BME280;50266;57.446;26.936;2022-11-20T04:04:19;99304.57;;;-5.86;100.0
64025;BME280;50266;57.446;26.936;2022-11-20T04:05:19;99305.91;;;-5.9;100.0
64025;BME280;50266;57.446;26.936;2022-11-20T04:06:20;99303.38;;;-5.92;100.0
64025;BME280;50266;57.446;26.936;2022-11-20T04:07:19;99302.83;;;-5.88;100.0
64025;BME280;50266;57.446;26.936;2022-11-20T04:08:19;99305.53;;;-5.9;100.0
64025;BME280;50266;57.446;26.936;2022-11-20T04:09:19;99302.46;;;-5.92;100.0
64025;BME280;50266;57.446;26.936;2022-11-20T04:10:19;99299.5;;;-5.93;100.0
64025;BME280;50266;57.446;26.936;2022-11-20T04:11:20;99302.69;;;-5.87;100.0
64025;BME280;50266;57.446;26.936;2022-11-20T04:12:19;99302.36;;;-5.87;100.0
64025;BME280;50266;57.446;26.936;2022-11-20T04:13:19;99304.18;;;-5.89;100.0
64025;BME280;50266;57.446;26.936;2022-11-20T04:14:19;99302.45;;;-5.89;100.0
64025;BME280;50266;57.446;26.936;2022-11-20T04:15:19;99301.81;;;-5.91;100.0
64025;BME280;50266;57.446;26.936;2022-11-20T04:16:19;99305.96;;;-5.91;100.0
64025;BME280;50266;57.446;26.936;2022-11-20T04:17:19;99301.7;;;-5.92;100.0
64025;BME280;50266;57.446;26.936;2022-11-20T04:18:19;99302.41;;;-5.92;100.0
64025;BME280;50266;57.446;26.936;2022-11-20T04:19:19;99298.74;;;-5.91;100.0
64025;BME280;50266;57.446;26.936;2022-11-20T04:20:19;99301.88;;;-5.93;100.0
64025;BME280;50266;57.446;26.936;2022-11-20T04:21:19;99299.55;;;-5.92;100.0
64025;BME280;50266;57.446;26.936;2022-11-20T04:22:19;99306.41;;;-5.94;100.0
64025;BME280;50266;57.446;26.936;2022-11-20T04:23:19;99303.06;;;-5.94;100.0
64025;BME280;50266;57.446;26.936;2022-11-20T04:24:22;99301.28;;;-5.96;100.0
64025;BME280;50266;57.446;26.936;2022-11-20T04:25:22;99303.06;;;-5.94;100.0
64025;BME280;50266;57.446;26.936;2022-11-20T04:26:23;99303.82;;;-5.97;100.0
64025;BME280;50266;57.446;26.936;2022-11-20T04:27:22;99312.88;;;-6.0;100.0
64025;BME280;50266;57.446;26.936;2022-11-20T04:28:22;99312.88;;;-5.96;100.0
64025;BME280;50266;57.446;26.936;2022-11-20T04:29:22;99308.83;;;-5.93;100.0
64025;BME280;50266;57.446;26.936;2022-11-20T04:30:22;99310.07;;;-5.95;100.0
64025;BME280;50266;57.446;26.936;2022-11-20T04:31:24;99310.02;;;-5.93;100.0
64025;BME280;50266;57.446;26.936;2022-11-20T04:32:22;99316.49;;;-5.98;100.0
64025;BME280;50266;57.446;26.936;2022-11-20T04:33:22;99323.5;;;-5.98;100.0
64025;BME280;50266;57.446;26.936;2022-11-20T04:34:22;99320.32;;;-6.0;100.0
64025;BME280;50266;57.446;26.936;2022-11-20T04:35:22;99317.84;;;-5.98;100.0
64025;BME280;50266;57.446;26.936;2022-11-20T04:36:23;99316.28;;;-6.0;100.0
64025;BME280;50266;57.446;26.936;2022-11-20T04:37:22;99323.28;;;-5.98;100.0
64025;BME280;50266;57.446;26.936;2022-11-20T04:38:22;99312.49;;;-6.03;100.0
64025;BME280;50266;57.446;26.936;2022-11-20T04:39:22;99317.93;;;-6.02;100.0
64025;BME280;50266;57.446;26.936;2022-11-20T04:40:22;99316.86;;;-6.03;100.0
64025;BME280;50266;57.446;26.936;2022-11-20T04:41:23;99319.52;;;-6.01;100.0
64025;BME280;50266;57.446;26.936;2022-11-20T04:42:22;99320.79;;;-6.02;100.0
64025;BME280;50266;57.446;26.936;2022-11-20T04:43:22;99321.92;;;-5.93;100.0
64025;BME280;50266;57.446;26.936;2022-11-20T04:44:22;99327.86;;;-5.96;100.0
64025;BME280;50266;57.446;26.936;2022-11-20T04:45:23;99326.62;;;-5.98;100.0
64025;BME280;50266;57.446;26.936;2022-11-20T04:46:22;99327.59;;;-5.99;100.0
64025;BME280;50266;57.446;26.936;2022-11-20T04:47:23;99328.19;;;-5.98;100.0
64025;BME280;50266;57.446;26.936;2022-11-20T04:48:23;99330.67;;;-5.98;100.0
64025;BME280;50266;57.446;26.936;2022-11-20T04:49:23;99328.23;;;-5.97;100.0
64025;BME280;50266;57.446;26.936;2022-11-20T04:50:23;99330.02;;;-5.96;100.0
64025;BME280;50266;57.446;26.936;2022-11-20T04:51:23;99321.5;;;-5.94;100.0
64025;BME280;50266;57.446;26.936;2022-11-20T04:52:23;99324.62;;;-5.94;100.0
64025;BME280;50266;57.446;26.936;2022-11-20T04:53:23;99327.27;;;-5.94;100.0
64025;BME280;50266;57.446;26.936;2022-11-20T04:54:23;99321.34;;;-5.97;100.0
64025;BME280;50266;57.446;26.936;2022-11-20T04:55:23;99320.41;;;-5.92;100.0
64025;BME280;50266;57.446;26.936;2022-11-20T04:56:23;99326.52;;;-5.97;100.0
64025;BME280;50266;57.446;26.936;2022-11-20T04:57:23;99327.0;;;-6.0;100.0
64025;BME280;50266;57.446;26.936;2022-11-20T04:58:23;99327.59;;;-5.99;100.0
64025;BME280;50266;57.446;26.936;2022-11-20T04:59:23;99322.69;;;-5.98;100.0
64025;BME280;50266;57.446;26.936;2022-11-20T05:00:23;99323.49;;;-5.94;100.0
64025;BME280;50266;57.446;26.936;2022-11-20T05:01:23;99324.73;;;-5.97;100.0
64025;BME280;50266;57.446;26.936;2022-11-20T05:02:23;99322.15;;;-5.97;100.0
64025;BME280;50266;57.446;26.936;2022-11-20T05:03:23;99327.22;;;-5.98;100.0
64025;BME280;50266;57.446;26.936;2022-11-20T05:04:23;99326.57;;;-5.99;100.0
64025;BME280;50266;57.446;26.936;2022-11-20T05:05:23;99321.83;;;-5.99;100.0
64025;BME280;50266;57.446;26.936;2022-11-20T05:06:23;99319.89;;;-6.01;100.0
64025;BME280;50266;57.446;26.936;2022-11-20T05:07:23;99320.05;;;-6.01;100.0
64025;BME280;50266;57.446;26.936;2022-11-20T05:08:23;99322.8;;;-6.0;100.0
64025;BME280;50266;57.446;26.936;2022-11-20T05:09:23;99324.08;;;-6.03;100.0
64025;BME280;50266;57.446;26.936;2022-11-20T05:10:23;99323.92;;;-6.02;100.0
64025;BME280;50266;57.446;26.936;2022-11-20T05:11:23;99326.39;;;-6.02;100.0
64025;BME280;50266;57.446;26.936;2022-11-20T05:12:23;99323.77;;;-6.05;100.0
64025;BME280;50266;57.446;26.936;2022-11-20T05:13:23;99320.2;;;-6.02;100.0
64025;BME280;50266;57.446;26.936;2022-11-20T05:14:23;99323.12;;;-6.06;100.0
64025;BME280;50266;57.446;26.936;2022-11-20T05:15:23;99320.38;;;-5.97;100.0
64025;BME280;50266;57.446;26.936;2022-11-20T05:16:23;99319.55;;;-5.95;100.0
64025;BME280;50266;57.446;26.936;2022-11-20T05:17:23;99316.27;;;-5.96;100.0
64025;BME280;50266;57.446;26.936;2022-11-20T05:18:23;99318.1;;;-5.94;100.0